Time;durP1;ratioP1;P1;durP2;ratioP2;P2;SDS_P1;SDS_P2;PMS_P1;PMS_P2;Temp;Humidity;BMP_temperature;BMP_pressure;BME280_temperature;BME280_humidity;BME280_pressure;Samples;Min_cycle;Max_cycle;Signal;HPM_P1;HPM_P2
2021/05/27 00:00:29;;;;;;;8.35;5.20;;;;;;;12.17;99.03;100902.81;5068176;28;20032;-73
2021/05/27 00:02:55;;;;;;;11.65;5.60;;;;;;;12.19;98.81;100894.66;5066450;28;20028;-73
2021/05/27 00:05:21;;;;;;;10.80;5.30;;;;;;;12.20;99.13;100896.38;5083741;28;20412;-73
2021/05/27 00:07:47;;;;;;;9.68;5.18;;;;;;;12.10;98.91;100891.63;5083629;28;20035;-73
2021/05/27 00:10:15;;;;;;;7.97;5.57;;;;;;;12.13;98.82;100899.50;5086691;28;20032;-73
2021/05/27 00:12:41;;;;;;;15.20;5.22;;;;;;;12.05;99.38;100899.16;5083291;28;20055;-73
2021/05/27 00:15:08;;;;;;;10.50;5.40;;;;;;;12.11;99.03;100904.13;5078883;28;20480;-73
2021/05/27 00:17:33;;;;;;;8.73;4.60;;;;;;;12.03;99.60;100895.72;5083071;28;20035;-73
2021/05/27 00:19:59;;;;;;;9.40;5.05;;;;;;;12.04;99.53;100892.03;5085648;28;20036;-73
2021/05/27 00:22:25;;;;;;;9.55;5.35;;;;;;;12.12;99.68;100888.84;5083701;28;20102;-73
2021/05/27 00:24:50;;;;;;;12.18;5.85;;;;;;;12.13;98.70;100895.94;5089601;28;20054;-73
2021/05/27 00:27:16;;;;;;;10.27;5.43;;;;;;;12.04;99.17;100891.16;5083815;28;20032;-73
2021/05/27 00:29:41;;;;;;;8.73;5.47;;;;;;;12.10;98.74;100894.31;5059446;28;20055;-73
2021/05/27 00:32:07;;;;;;;10.27;5.43;;;;;;;11.98;99.41;100897.84;5082014;28;20028;-73
2021/05/27 00:34:33;;;;;;;11.80;5.32;;;;;;;12.03;99.67;100895.72;5072785;28;20107;-72
2021/05/27 00:36:58;;;;;;;12.70;5.80;;;;;;;12.03;99.50;100895.72;5085938;28;20457;-72
2021/05/27 00:39:24;;;;;;;16.13;5.95;;;;;;;11.97;99.87;100888.03;5077769;28;20035;-72
2021/05/27 00:41:49;;;;;;;9.70;5.38;;;;;;;11.95;100.00;100895.38;5092394;28;20035;-72
2021/05/27 00:44:18;;;;;;;8.38;5.05;;;;;;;11.90;100.00;100894.81;5085461;28;20476;-72
2021/05/27 00:46:43;;;;;;;10.57;5.85;;;;;;;11.99;100.00;100904.06;5085851;28;20032;-72
2021/05/27 00:49:09;;;;;;;11.30;6.05;;;;;;;11.98;99.62;100902.34;5070922;28;20035;-73
2021/05/27 00:51:34;;;;;;;11.73;6.45;;;;;;;12.00;99.92;100901.28;5066780;28;20054;-73
2021/05/27 00:54:00;;;;;;;9.13;5.85;;;;;;;11.88;100.00;100907.50;5064690;28;20039;-73
2021/05/27 00:56:26;;;;;;;11.32;6.60;;;;;;;11.92;100.00;100903.63;5070678;28;20032;-72
2021/05/27 00:58:53;;;;;;;11.77;6.93;;;;;;;11.80;100.00;100909.81;5071502;28;20032;-72
2021/05/27 01:01:19;;;;;;;10.30;5.82;;;;;;;11.85;100.00;100906.84;5075257;28;20035;-72
2021/05/27 01:03:44;;;;;;;9.85;6.72;;;;;;;11.80;100.00;100912.50;5055387;28;20020;-73
2021/05/27 01:06:10;;;;;;;19.92;9.20;;;;;;;11.86;100.00;100903.16;5071222;28;20085;-72
2021/05/27 01:08:36;;;;;;;22.05;8.77;;;;;;;11.86;100.00;100914.78;5075978;28;20020;-72
2021/05/27 01:11:04;;;;;;;13.63;7.57;;;;;;;11.86;100.00;100909.41;5053465;28;20157;-72
2021/05/27 01:13:31;;;;;;;16.25;8.75;;;;;;;11.82;100.00;100907.91;5051631;28;20484;-72
2021/05/27 01:15:57;;;;;;;17.60;8.13;;;;;;;11.91;100.00;100907.28;5085176;28;20153;-72
2021/05/27 01:18:25;;;;;;;12.35;7.70;;;;;;;11.83;100.00;100904.25;5084506;28;20036;-72
2021/05/27 01:20:54;;;;;;;11.57;8.18;;;;;;;11.73;100.00;100903.97;5068227;28;20123;-72
2021/05/27 01:23:21;;;;;;;18.92;9.15;;;;;;;11.74;100.00;100907.53;5064615;28;20055;-72
2021/05/27 01:25:52;;;;;;;15.23;9.65;;;;;;;11.72;100.00;100899.56;5083365;28;20428;-72
2021/05/27 01:28:18;;;;;;;16.20;9.40;;;;;;;11.73;100.00;100909.34;5067264;28;20028;-72
2021/05/27 01:30:46;;;;;;;15.90;9.98;;;;;;;11.84;100.00;100914.06;5083707;28;20455;-72
2021/05/27 01:33:35;;;;;;;14.55;9.50;;;;;;;11.68;100.00;100908.78;5066033;28;20097;-72
2021/05/27 01:36:03;;;;;;;20.20;10.90;;;;;;;11.79;100.00;100908.09;5067808;28;20024;-73
2021/05/27 01:38:31;;;;;;;19.05;10.48;;;;;;;11.71;100.00;100910.41;5070934;28;20469;-72
2021/05/27 01:41:00;;;;;;;20.00;10.38;;;;;;;11.77;100.00;100903.78;5070146;28;20139;-73
2021/05/27 01:43:26;;;;;;;17.45;10.18;;;;;;;11.87;100.00;100907.59;5073155;28;20575;-72
2021/05/27 01:45:54;;;;;;;16.40;10.18;;;;;;;11.78;100.00;100914.47;5076480;28;20143;-72
2021/05/27 01:48:21;;;;;;;25.70;10.43;;;;;;;11.75;100.00;100906.56;5079795;28;20070;-72
2021/05/27 01:50:48;;;;;;;18.17;10.10;;;;;;;11.90;100.00;100915.47;5089362;28;20051;-73
2021/05/27 01:53:14;;;;;;;16.70;9.90;;;;;;;11.90;100.00;100918.16;5087420;28;20466;-72
2021/05/27 01:55:42;;;;;;;17.02;9.07;;;;;;;11.92;100.00;100919.75;5089796;28;20035;-73
2021/05/27 01:58:09;;;;;;;15.63;9.82;;;;;;;11.94;100.00;100911.59;5088663;28;20032;-72
2021/05/27 02:00:35;;;;;;;17.63;9.43;;;;;;;11.89;100.00;100908.34;5071294;28;20028;-72
2021/05/27 02:03:02;;;;;;;13.60;8.20;;;;;;;11.81;100.00;100916.94;5075935;28;20035;-72
2021/05/27 02:05:32;;;;;;;17.65;9.50;;;;;;;11.75;100.00;100918.19;5073079;28;20042;-72
2021/05/27 02:08:00;;;;;;;14.65;8.70;;;;;;;11.77;100.00;100915.41;5073318;28;20035;-72
2021/05/27 02:10:41;;;;;;;15.25;8.68;;;;;;;11.82;100.00;100920.47;5073169;28;20031;-72
2021/05/27 02:13:08;;;;;;;15.88;9.05;;;;;;;11.88;100.00;100920.94;5076748;28;20066;-72
2021/05/27 02:15:34;;;;;;;15.32;9.05;;;;;;;11.85;100.00;100917.59;5066709;28;20124;-72
2021/05/27 02:18:00;;;;;;;14.90;8.50;;;;;;;11.84;100.00;100911.38;5081614;28;20046;-72
2021/05/27 02:20:26;;;;;;;15.15;9.48;;;;;;;11.91;100.00;100918.03;5096886;28;20032;-72
2021/05/27 02:22:52;;;;;;;15.95;9.07;;;;;;;11.89;100.00;100917.28;5097395;28;20115;-73
2021/05/27 02:25:56;;;;;;;19.75;8.32;;;;;;;12.00;100.00;100922.81;5085949;28;20032;-73
2021/05/27 02:28:37;;;;;;;12.40;8.27;;;;;;;11.94;100.00;100912.47;5074693;28;20062;-72
2021/05/27 02:31:03;;;;;;;16.55;10.73;;;;;;;11.84;100.00;100927.50;5074373;28;20105;-72
2021/05/27 02:33:33;;;;;;;15.25;9.82;;;;;;;11.86;100.00;100924.69;5097440;28;20030;-72
2021/05/27 02:36:05;;;;;;;15.77;10.57;;;;;;;11.84;100.00;100930.19;5070267;28;20035;-72
2021/05/27 02:38:32;;;;;;;16.20;11.05;;;;;;;11.86;100.00;100936.31;5094357;28;20024;-72
2021/05/27 02:40:58;;;;;;;24.40;11.70;;;;;;;11.88;100.00;100934.38;5058723;28;20393;-72
2021/05/27 02:43:26;;;;;;;25.67;13.10;;;;;;;11.81;100.00;100932.19;5062635;28;20023;-72
2021/05/27 02:45:54;;;;;;;22.83;11.55;;;;;;;11.86;100.00;100924.69;5066307;28;20081;-72
2021/05/27 02:48:21;;;;;;;21.80;12.13;;;;;;;11.90;100.00;100932.47;5083592;28;20126;-72
2021/05/27 02:50:48;;;;;;;19.60;11.50;;;;;;;11.80;100.00;100935.84;5072694;28;20020;-72
2021/05/27 02:53:14;;;;;;;19.20;11.13;;;;;;;11.78;100.00;100938.66;5093829;28;20115;-72
2021/05/27 02:55:40;;;;;;;28.27;10.73;;;;;;;11.82;100.00;100944.69;5071990;28;20024;-72
2021/05/27 02:58:06;;;;;;;18.25;10.43;;;;;;;11.76;100.00;100943.28;5078439;28;20034;-72
2021/05/27 03:00:33;;;;;;;19.38;10.95;;;;;;;11.75;100.00;100936.16;5068911;28;20051;-73
2021/05/27 03:03:21;;;;;;;17.75;9.43;;;;;;;11.77;100.00;100936.94;5066680;28;20058;-72
2021/05/27 03:05:49;;;;;;;18.67;9.45;;;;;;;11.84;100.00;100938.25;5068653;28;20063;-73
2021/05/27 03:08:17;;;;;;;22.27;9.75;;;;;;;11.82;100.00;100934.78;5075672;28;20569;-72
2021/05/27 03:10:45;;;;;;;30.10;12.35;;;;;;;11.81;100.00;100946.50;5069778;28;20028;-73
2021/05/27 03:13:11;;;;;;;22.65;9.57;;;;;;;11.79;100.00;100943.06;5077507;28;20027;-72
2021/05/27 03:15:37;;;;;;;21.38;9.98;;;;;;;11.67;100.00;100941.13;5069158;28;20624;-73
2021/05/27 03:18:06;;;;;;;20.70;10.32;;;;;;;11.70;100.00;100940.94;5091100;28;20066;-72
2021/05/27 03:20:34;;;;;;;15.75;8.88;;;;;;;11.80;100.00;100950.16;5072227;28;20081;-73
2021/05/27 03:23:00;;;;;;;18.33;9.15;;;;;;;11.75;100.00;100950.47;5052097;28;20046;-73
2021/05/27 03:25:26;;;;;;;21.63;10.07;;;;;;;11.71;100.00;100950.75;5101054;28;20020;-73
2021/05/27 03:27:51;;;;;;;17.20;9.02;;;;;;;11.77;100.00;100945.00;5064784;28;20127;-73
2021/05/27 03:30:19;;;;;;;14.43;8.13;;;;;;;11.75;100.00;100955.84;5076699;28;20024;-72
2021/05/27 03:32:48;;;;;;;19.92;9.23;;;;;;;11.84;100.00;100951.72;5063355;28;20599;-72
2021/05/27 03:35:15;;;;;;;13.85;8.52;;;;;;;11.79;100.00;100948.44;5071248;28;20127;-72
2021/05/27 03:37:41;;;;;;;18.70;8.75;;;;;;;11.83;100.00;100951.81;5069056;28;20418;-72
2021/05/27 03:40:16;;;;;;;20.67;8.48;;;;;;;11.80;100.00;100952.84;5087908;28;20042;-72
2021/05/27 03:42:53;;;;;;;16.17;7.68;;;;;;;11.80;100.00;100958.22;5079652;28;20039;-73
2021/05/27 03:45:22;;;;;;;21.80;8.55;;;;;;;11.72;100.00;100960.53;5080373;28;20179;-72
2021/05/27 03:48:17;;;;;;;17.33;7.82;;;;;;;11.73;100.00;100956.88;5079677;28;20035;-72
2021/05/27 03:50:43;;;;;;;14.27;8.00;;;;;;;11.84;100.00;100958.91;5074097;28;20032;-72
2021/05/27 03:53:13;;;;;;;14.45;7.50;;;;;;;11.79;99.82;100956.50;5088580;28;20108;-72
2021/05/27 03:55:42;;;;;;;21.13;8.35;;;;;;;11.85;99.69;100963.34;5067118;28;20050;-72
2021/05/27 04:00:56;;;;;;;20.77;8.50;;;;;;;11.77;99.46;100961.13;5093621;28;20480;-72
2021/05/27 04:09:12;;;;;;;18.77;8.73;;;;;;;11.77;98.89;100963.81;5083671;28;20111;-72
2021/05/27 04:11:37;;;;;;;22.70;8.50;;;;;;;11.67;99.25;100970.72;5084019;28;20028;-72
2021/05/27 04:14:03;;;;;;;15.20;8.05;;;;;;;11.75;99.71;100974.69;5087540;28;20057;-73
2021/05/27 04:16:28;;;;;;;19.30;8.07;;;;;;;11.73;99.58;100967.63;5065403;28;20020;-73
2021/05/27 04:18:54;;;;;;;21.42;8.63;;;;;;;11.72;100.00;100982.06;5074466;28;20130;-73
2021/05/27 04:21:19;;;;;;;16.95;8.13;;;;;;;11.74;99.44;100982.84;5067737;28;20055;-72
2021/05/27 04:23:44;;;;;;;24.85;8.18;;;;;;;11.69;99.52;100987.63;5069559;28;20031;-72
2021/05/27 04:26:15;;;;;;;22.38;8.23;;;;;;;11.70;100.00;100978.59;5067967;28;20085;-73
2021/05/27 04:28:42;;;;;;;17.20;8.25;;;;;;;11.74;100.00;100988.22;5068885;28;20039;-72
2021/05/27 04:31:16;;;;;;;19.08;8.18;;;;;;;11.72;100.00;100990.13;5080021;28;20020;-73
2021/05/27 04:33:45;;;;;;;22.90;9.93;;;;;;;11.77;100.00;100992.53;5079614;28;20032;-73
2021/05/27 04:36:11;;;;;;;18.52;8.32;;;;;;;11.77;100.00;100979.97;5052066;28;20035;-73
2021/05/27 04:38:37;;;;;;;19.83;7.90;;;;;;;11.69;100.00;100987.63;5085169;28;20043;-72
2021/05/27 04:41:04;;;;;;;16.92;8.80;;;;;;;11.75;100.00;100989.94;5083526;28;20042;-73
2021/05/27 04:43:29;;;;;;;20.90;9.90;;;;;;;11.77;100.00;100993.41;5086412;28;20020;-73
2021/05/27 04:45:55;;;;;;;23.33;9.98;;;;;;;11.78;100.00;100992.44;5075175;28;20395;-73
2021/05/27 04:48:20;;;;;;;22.92;10.10;;;;;;;11.74;100.00;100999.84;5086115;28;20407;-73
2021/05/27 04:50:48;;;;;;;33.00;10.48;;;;;;;11.70;100.00;101005.47;5068863;28;20043;-73
2021/05/27 04:53:14;;;;;;;29.05;10.85;;;;;;;11.75;100.00;101008.78;5067834;28;20028;-73
2021/05/27 04:55:40;;;;;;;31.23;9.40;;;;;;;11.78;100.00;101003.22;5068219;28;20443;-72
2021/05/27 04:58:06;;;;;;;21.02;9.88;;;;;;;11.69;100.00;101007.31;5084238;28;20016;-73
2021/05/27 05:00:32;;;;;;;28.80;11.23;;;;;;;11.69;100.00;101006.44;5083110;28;20039;-72
2021/05/27 05:02:58;;;;;;;19.42;9.82;;;;;;;11.71;100.00;101007.22;5085924;28;20095;-72
2021/05/27 05:05:25;;;;;;;28.48;10.77;;;;;;;11.68;100.00;101015.47;5070196;28;20031;-72
2021/05/27 05:07:51;;;;;;;23.55;10.15;;;;;;;11.60;100.00;101024.00;5085961;28;20515;-72
2021/05/27 05:10:18;;;;;;;31.42;10.35;;;;;;;11.59;100.00;101021.44;5082659;28;20116;-73
2021/05/27 05:12:49;;;;;;;19.83;9.90;;;;;;;11.59;100.00;101024.13;5065666;28;20031;-71
2021/05/27 05:15:19;;;;;;;24.17;9.63;;;;;;;11.42;100.00;101027.03;5085061;28;20039;-72
2021/05/27 05:17:49;;;;;;;29.13;10.85;;;;;;;11.45;100.00;101016.94;5087837;28;20028;-72
2021/05/27 05:20:18;;;;;;;24.90;9.02;;;;;;;11.45;100.00;101027.69;5056756;28;20181;-72
2021/05/27 05:22:43;;;;;;;23.23;9.75;;;;;;;11.40;100.00;101029.81;5063366;28;20038;-72
2021/05/27 05:25:09;;;;;;;23.42;9.65;;;;;;;11.39;100.00;101027.22;5090991;28;20418;-71
2021/05/27 05:27:35;;;;;;;24.40;10.48;;;;;;;11.29;100.00;101030.47;5071642;28;20065;-72
2021/05/27 05:30:00;;;;;;;20.58;10.02;;;;;;;11.32;100.00;101024.91;5079348;28;20032;-72
2021/05/27 05:32:26;;;;;;;31.20;10.48;;;;;;;11.33;100.00;101029.34;5097619;28;20271;-72
2021/05/27 05:34:51;;;;;;;32.78;11.60;;;;;;;11.29;100.00;101027.78;5090237;28;20035;-72
2021/05/27 05:37:17;;;;;;;25.92;10.10;;;;;;;11.27;100.00;101039.59;5070871;28;20645;-72
2021/05/27 05:39:43;;;;;;;28.38;10.38;;;;;;;11.29;100.00;101038.53;5073271;28;20113;-72
2021/05/27 05:42:08;;;;;;;29.08;10.30;;;;;;;11.30;100.00;101040.25;5090478;28;20028;-72
2021/05/27 05:44:33;;;;;;;22.20;9.73;;;;;;;11.28;100.00;101036.81;5087199;28;20519;-72
2021/05/27 05:46:59;;;;;;;22.70;9.70;;;;;;;11.27;100.00;101051.22;5090640;28;20402;-72
2021/05/27 05:49:25;;;;;;;27.15;9.65;;;;;;;11.23;100.00;101044.28;5075931;28;20032;-72
2021/05/27 05:51:50;;;;;;;23.85;9.88;;;;;;;11.21;100.00;101050.72;5073798;28;20056;-72
2021/05/27 05:54:16;;;;;;;31.27;10.93;;;;;;;11.19;100.00;101053.50;5075695;28;20502;-72
2021/05/27 05:56:41;;;;;;;30.38;11.82;;;;;;;11.26;100.00;101052.16;5089222;28;20028;-72
2021/05/27 05:59:07;;;;;;;21.00;9.55;;;;;;;11.15;100.00;101049.28;5092248;28;20019;-72
2021/05/27 06:01:32;;;;;;;27.40;10.65;;;;;;;11.19;100.00;101055.31;5089882;28;20028;-71
2021/05/27 06:03:58;;;;;;;29.52;9.57;;;;;;;11.22;100.00;101058.69;5073852;28;20123;-72
2021/05/27 06:06:39;;;;;;;26.17;10.55;;;;;;;11.21;100.00;101051.59;5071504;28;20047;-72
2021/05/27 06:09:14;;;;;;;23.60;9.40;;;;;;;11.19;100.00;101053.50;5068885;28;20122;-72
2021/05/27 06:11:40;;;;;;;31.00;11.10;;;;;;;11.21;100.00;101065.03;5071934;28;20043;-71
2021/05/27 06:14:06;;;;;;;27.00;9.63;;;;;;;11.21;100.00;101062.34;5091317;28;20027;-72
2021/05/27 06:16:31;;;;;;;26.90;10.50;;;;;;;11.18;100.00;101065.19;5076706;28;20133;-72
2021/05/27 06:18:57;;;;;;;25.17;9.57;;;;;;;11.25;100.00;101074.63;5070725;28;20040;-72
2021/05/27 06:21:37;;;;;;;28.77;9.68;;;;;;;11.20;100.00;101063.28;5066909;28;20039;-72
2021/05/27 06:24:09;;;;;;;19.40;9.38;;;;;;;11.29;100.00;101068.09;5066629;28;20028;-72
2021/05/27 06:26:36;;;;;;;24.17;9.70;;;;;;;11.31;100.00;101074.25;5072125;28;20089;-72
2021/05/27 06:29:02;;;;;;;26.42;10.57;;;;;;;11.33;100.00;101069.63;5076149;28;20026;-72
2021/05/27 06:31:28;;;;;;;23.73;9.50;;;;;;;11.39;100.00;101071.09;5066277;28;20495;-72
2021/05/27 06:33:54;;;;;;;27.30;10.60;;;;;;;11.40;100.00;101072.81;5089222;28;20058;-72
2021/05/27 06:36:19;;;;;;;27.10;10.40;;;;;;;11.42;100.00;101081.63;5088712;28;20020;-71
2021/05/27 06:38:45;;;;;;;29.63;9.93;;;;;;;11.42;100.00;101070.03;5090055;28;20035;-71
2021/05/27 06:41:11;;;;;;;21.95;9.43;;;;;;;11.40;100.00;101078.19;5072041;28;20618;-72
2021/05/27 06:43:36;;;;;;;17.05;8.43;;;;;;;11.51;100.00;101081.06;5086804;28;20027;-72
2021/05/27 06:46:02;;;;;;;31.15;8.82;;;;;;;11.53;100.00;101078.28;5088694;28;20521;-71
2021/05/27 06:48:27;;;;;;;26.02;7.82;;;;;;;11.61;100.00;101079.53;5088982;28;20520;-72
2021/05/27 06:50:54;;;;;;;21.08;8.00;;;;;;;11.58;100.00;101076.19;5073295;28;20020;-72
2021/05/27 06:53:19;;;;;;;21.90;7.88;;;;;;;11.65;100.00;101086.47;5088310;28;20061;-71
2021/05/27 06:55:47;;;;;;;21.88;8.65;;;;;;;11.59;100.00;101078.78;5092818;28;20050;-72
2021/05/27 06:58:13;;;;;;;26.08;7.35;;;;;;;11.56;100.00;101088.84;5087307;28;20043;-72
2021/05/27 07:00:40;;;;;;;18.52;7.38;;;;;;;11.60;100.00;101085.84;5087113;28;20553;-72
2021/05/27 07:03:06;;;;;;;23.90;7.80;;;;;;;11.57;100.00;101093.25;5085914;28;20648;-71
2021/05/27 07:05:33;;;;;;;21.55;7.35;;;;;;;11.60;100.00;101083.16;5072360;28;20047;-71
2021/05/27 07:08:01;;;;;;;22.33;7.60;;;;;;;11.60;100.00;101093.09;5075838;28;20503;-71
2021/05/27 07:10:26;;;;;;;22.42;7.55;;;;;;;11.54;100.00;101090.78;5074214;28;20524;-72
2021/05/27 07:12:54;;;;;;;18.50;7.55;;;;;;;11.56;100.00;101095.09;5068401;28;20036;-72
2021/05/27 07:15:21;;;;;;;23.67;8.02;;;;;;;11.68;100.00;101096.13;5082301;28;20039;-72
2021/05/27 07:17:50;;;;;;;18.00;7.85;;;;;;;11.75;100.00;101100.22;5084640;28;20024;-71
2021/05/27 07:20:18;;;;;;;19.55;7.07;;;;;;;11.74;100.00;101103.84;5086271;28;20027;-72
2021/05/27 07:22:43;;;;;;;24.73;7.75;;;;;;;11.67;100.00;101095.28;5088506;28;20032;-72
2021/05/27 07:25:10;;;;;;;16.85;7.90;;;;;;;11.69;100.00;101096.03;5077637;28;20554;-72
2021/05/27 07:27:35;;;;;;;26.30;8.38;;;;;;;11.80;100.00;101107.97;5085215;28;20480;-72
2021/05/27 07:30:02;;;;;;;22.88;8.38;;;;;;;11.93;100.00;101104.41;5092346;28;20099;-72
2021/05/27 07:32:27;;;;;;;19.05;8.32;;;;;;;12.02;100.00;101105.66;5082820;28;20035;-71
2021/05/27 07:34:53;;;;;;;22.63;8.55;;;;;;;12.00;100.00;101116.53;5086426;28;20035;-72
2021/05/27 07:37:18;;;;;;;17.40;8.00;;;;;;;11.92;100.00;101105.38;5072255;28;20039;-72
2021/05/27 07:39:45;;;;;;;18.25;8.00;;;;;;;11.99;100.00;101114.78;5093661;28;20320;-72
2021/05/27 07:42:10;;;;;;;18.88;7.95;;;;;;;11.83;100.00;101119.44;5090061;28;20031;-72
2021/05/27 07:44:36;;;;;;;21.50;7.78;;;;;;;11.90;100.00;101119.91;5088150;28;20416;-72
2021/05/27 07:47:02;;;;;;;21.30;7.07;;;;;;;11.81;100.00;101121.34;5086404;28;20039;-72
2021/05/27 07:49:28;;;;;;;19.13;6.35;;;;;;;11.89;100.00;101113.66;5084931;28;20024;-72
2021/05/27 07:51:57;;;;;;;23.00;8.07;;;;;;;11.77;100.00;101119.81;5068215;28;20040;-72
2021/05/27 07:54:24;;;;;;;25.17;7.18;;;;;;;11.75;100.00;101119.91;5074813;28;20023;-72
2021/05/27 07:56:50;;;;;;;22.92;6.03;;;;;;;11.81;100.00;101120.47;5090955;28;20028;-71
2021/05/27 07:59:15;;;;;;;21.95;7.00;;;;;;;11.75;100.00;101127.09;5069900;28;20078;-72
2021/05/27 08:01:42;;;;;;;19.38;7.13;;;;;;;11.81;100.00;101134.78;5074527;28;20035;-71
2021/05/27 08:04:08;;;;;;;17.73;6.35;;;;;;;11.90;100.00;101126.16;5090748;28;20027;-71
2021/05/27 08:06:34;;;;;;;22.33;7.40;;;;;;;11.98;100.00;101125.63;5087235;28;20035;-71
2021/05/27 08:08:59;;;;;;;19.02;7.38;;;;;;;11.94;100.00;101137.56;5086139;28;20036;-72
2021/05/27 08:11:25;;;;;;;15.52;6.97;;;;;;;11.99;100.00;101130.94;5086647;28;20022;-71
2021/05/27 08:13:50;;;;;;;23.70;7.57;;;;;;;11.98;100.00;101134.56;5073298;28;20032;-72
2021/05/27 08:16:16;;;;;;;18.60;7.65;;;;;;;11.98;100.00;101139.97;5071521;28;20040;-72
2021/05/27 08:18:41;;;;;;;19.13;7.30;;;;;;;11.99;100.00;101133.63;5068405;28;20032;-72
2021/05/27 08:21:08;;;;;;;18.80;7.10;;;;;;;11.96;100.00;101141.91;5087607;28;20481;-72
2021/05/27 08:23:34;;;;;;;21.70;7.00;;;;;;;11.94;100.00;101141.13;5065003;28;20467;-73
2021/05/27 08:25:59;;;;;;;18.45;7.13;;;;;;;11.85;100.00;101152.44;5087263;28;20067;-72
2021/05/27 08:28:24;;;;;;;20.77;7.07;;;;;;;11.93;100.00;101142.06;5069297;28;20070;-72
2021/05/27 08:30:50;;;;;;;22.45;8.27;;;;;;;11.98;100.00;101145.34;5084975;28;20032;-72
2021/05/27 08:33:15;;;;;;;21.33;7.80;;;;;;;11.82;100.00;101143.72;5082304;28;20016;-72
2021/05/27 08:35:41;;;;;;;17.58;7.28;;;;;;;11.84;100.00;101142.69;5092893;28;20233;-71
2021/05/27 08:38:06;;;;;;;35.85;10.93;;;;;;;11.94;100.00;101138.44;5090400;28;20023;-72
2021/05/27 08:40:32;;;;;;;19.48;8.45;;;;;;;11.94;100.00;101143.81;5081250;28;20077;-72
2021/05/27 08:43:01;;;;;;;23.90;9.85;;;;;;;11.91;100.00;101160.13;5088071;28;20031;-72
2021/05/27 08:45:29;;;;;;;16.95;7.30;;;;;;;11.84;100.00;101149.88;5092740;28;20024;-72
2021/05/27 08:47:55;;;;;;;22.63;8.07;;;;;;;11.90;100.00;101153.06;5061497;28;20028;-72
2021/05/27 08:50:29;;;;;;;18.42;7.75;;;;;;;11.98;100.00;101152.53;5089207;28;20391;-71
2021/05/27 08:52:58;;;;;;;20.20;8.65;;;;;;;12.01;100.00;101158.59;5068074;28;20392;-73
2021/05/27 08:55:24;;;;;;;18.13;7.95;;;;;;;11.93;100.00;101157.34;5087943;28;20030;-72
2021/05/27 08:57:50;;;;;;;27.45;10.35;;;;;;;11.95;100.00;101161.69;5088208;28;20032;-72
2021/05/27 09:00:16;;;;;;;22.23;8.57;;;;;;;11.95;100.00;101169.75;5069627;28;20062;-74
2021/05/27 09:03:01;;;;;;;21.23;8.45;;;;;;;12.00;100.00;101164.94;5081427;28;20124;-74
2021/05/27 09:05:31;;;;;;;25.75;9.77;;;;;;;12.00;100.00;101164.94;5069088;28;20483;-74
2021/05/27 09:07:56;;;;;;;30.00;9.70;;;;;;;12.05;100.00;101167.34;5084516;28;20133;-74
2021/05/27 09:10:48;;;;;;;25.98;9.40;;;;;;;12.09;100.00;101177.84;5089001;28;20051;-73
2021/05/27 09:13:17;;;;;;;24.55;8.80;;;;;;;12.03;100.00;101183.59;5071231;28;20024;-73
2021/05/27 09:15:44;;;;;;;27.08;10.13;;;;;;;12.00;100.00;101183.78;5072316;28;20039;-73
2021/05/27 09:18:10;;;;;;;29.42;9.93;;;;;;;11.96;100.00;101174.19;5072256;28;20032;-74
2021/05/27 09:20:36;;;;;;;21.40;8.85;;;;;;;11.89;100.00;101183.59;5091324;28;20225;-73
2021/05/27 09:23:12;;;;;;;19.02;8.55;;;;;;;11.96;100.00;101184.94;5087526;28;20031;-72
2021/05/27 09:25:49;;;;;;;21.63;9.98;;;;;;;11.93;100.00;101185.13;5067135;28;20469;-72
2021/05/27 09:28:23;;;;;;;18.92;8.57;;;;;;;11.89;100.00;101188.09;5064541;28;20115;-72
2021/05/27 09:30:53;;;;;;;22.38;10.30;;;;;;;11.99;100.00;101200.00;5080434;28;20063;-73
2021/05/27 09:33:29;;;;;;;24.45;9.65;;;;;;;11.99;100.00;101202.69;5049320;28;20055;-72
2021/05/27 09:36:11;;;;;;;22.98;9.38;;;;;;;12.03;100.00;101198.88;5091695;28;20032;-72
2021/05/27 09:38:45;;;;;;;19.23;9.15;;;;;;;12.00;100.00;101202.63;5076615;28;20490;-73
2021/05/27 09:41:21;;;;;;;26.48;10.65;;;;;;;12.02;100.00;101210.59;5090787;28;20031;-73
2021/05/27 09:44:06;;;;;;;23.85;9.07;;;;;;;11.96;100.00;101217.22;5063822;28;20021;-73
2021/05/27 09:46:52;;;;;;;21.40;9.15;;;;;;;11.97;100.00;101218.09;5069903;28;20044;-73
2021/05/27 09:49:23;;;;;;;19.63;8.80;;;;;;;12.00;100.00;101213.38;5065696;28;20040;-73
2021/05/27 09:51:51;;;;;;;19.67;8.75;;;;;;;11.99;100.00;101210.78;5064386;28;20089;-73
2021/05/27 09:54:17;;;;;;;27.77;9.93;;;;;;;12.00;100.00;101208.00;5084144;28;20023;-72
2021/05/27 09:56:43;;;;;;;18.98;8.38;;;;;;;12.04;100.00;101214.03;5048526;28;20396;-72
2021/05/27 09:59:10;;;;;;;20.90;8.70;;;;;;;12.10;100.00;101214.53;5085706;28;20282;-72
2021/05/27 10:01:36;;;;;;;26.67;8.63;;;;;;;12.08;100.00;101215.59;5087547;28;20035;-72
2021/05/27 10:04:15;;;;;;;18.92;8.82;;;;;;;12.13;100.00;101224.25;5074079;28;20041;-73
2021/05/27 10:06:42;;;;;;;20.88;9.00;;;;;;;12.19;100.00;101217.59;5069059;28;20055;-72
2021/05/27 10:09:09;;;;;;;20.50;10.25;;;;;;;12.18;100.00;101221.25;5091601;28;20020;-73
2021/05/27 10:11:36;;;;;;;19.83;9.02;;;;;;;12.34;100.00;101222.03;5092286;28;20019;-73
2021/05/27 10:14:03;;;;;;;22.42;9.48;;;;;;;12.39;100.00;101230.69;5090099;28;20118;-73
2021/05/27 10:16:28;;;;;;;20.63;8.68;;;;;;;12.64;100.00;101230.84;5083557;28;20036;-73
2021/05/27 10:18:55;;;;;;;22.80;9.85;;;;;;;12.69;100.00;101226.00;5071124;28;20557;-72
2021/05/27 10:21:23;;;;;;;23.73;8.90;;;;;;;12.75;100.00;101232.81;5071146;28;20038;-71
2021/05/27 10:23:49;;;;;;;20.25;8.93;;;;;;;12.76;100.00;101238.13;5085782;28;20034;-71
2021/05/27 10:26:15;;;;;;;18.00;9.35;;;;;;;12.75;100.00;101225.59;5084996;28;20426;-72
2021/05/27 10:28:47;;;;;;;23.40;8.68;;;;;;;12.81;100.00;101238.69;5085783;28;20057;-72
2021/05/27 10:31:14;;;;;;;22.92;9.52;;;;;;;12.70;100.00;101235.81;5075037;28;20039;-73
2021/05/27 10:33:41;;;;;;;16.80;8.40;;;;;;;12.71;100.00;101239.38;5070217;28;20036;-73
2021/05/27 10:36:09;;;;;;;22.80;7.82;;;;;;;12.83;100.00;101236.75;5086177;28;20031;-72
2021/05/27 10:38:37;;;;;;;13.18;6.85;;;;;;;12.88;100.00;101228.38;5085706;28;20111;-72
2021/05/27 10:41:07;;;;;;;17.90;8.23;;;;;;;12.97;100.00;101234.00;5070751;28;20028;-73
2021/05/27 10:43:33;;;;;;;27.10;9.52;;;;;;;12.93;100.00;101243.25;5084548;28;20032;-73
2021/05/27 10:46:01;;;;;;;17.63;8.32;;;;;;;12.85;100.00;101237.50;5086056;28;20538;-73
2021/05/27 10:48:31;;;;;;;21.67;10.18;;;;;;;12.74;100.00;101247.25;5081994;28;20450;-73
2021/05/27 10:53:40;;;;;;;27.17;9.40;;;;;;;12.77;100.00;101242.53;5085869;28;20028;-73
2021/05/27 10:56:11;;;;;;;20.10;8.73;;;;;;;12.73;100.00;101250.91;5084090;28;20046;-73
2021/05/27 10:58:45;;;;;;;16.90;8.63;;;;;;;12.66;100.00;101239.66;5083577;28;20039;-73
2021/05/27 11:01:14;;;;;;;15.65;9.15;;;;;;;12.66;100.00;101244.19;5082303;28;20356;-73
2021/05/27 11:03:49;;;;;;;16.58;9.20;;;;;;;12.81;100.00;101244.06;5080407;28;20063;-73
2021/05/27 11:06:17;;;;;;;23.65;9.80;;;;;;;12.88;100.00;101249.91;5083205;28;20044;-72
2021/05/27 11:08:43;;;;;;;25.73;10.27;;;;;;;12.82;100.00;101243.09;5065822;28;20032;-73
2021/05/27 11:11:37;;;;;;;29.02;11.65;;;;;;;12.86;100.00;101252.69;5064758;28;20451;-73
2021/05/27 11:14:26;;;;;;;21.00;10.10;;;;;;;12.95;100.00;101246.72;5085345;28;20031;-73
2021/05/27 11:17:04;;;;;;;28.58;10.35;;;;;;;13.03;100.00;101248.03;5072148;28;20047;-73
2021/05/27 11:25:15;;;;;;;25.30;9.50;;;;;;;13.34;100.00;101248.63;5085873;28;20074;-73
2021/05/27 11:27:42;;;;;;;24.33;9.70;;;;;;;13.49;100.00;101259.34;5083162;28;20046;-73
2021/05/27 11:30:29;;;;;;;20.60;9.52;;;;;;;13.52;100.00;101251.03;5086267;28;20016;-73